createdAt,value
2018-03-27T00:00:04.127Z,5.70
2018-03-27T00:02:32.234Z,5.70
2018-03-27T00:05:00.296Z,5.60
2018-03-27T00:07:28.371Z,5.70
2018-03-27T00:09:56.440Z,5.80
2018-03-27T00:12:24.519Z,5.70
2018-03-27T00:14:52.567Z,5.70
2018-03-27T00:17:20.654Z,5.80
2018-03-27T00:19:48.714Z,5.70
2018-03-27T00:22:16.856Z,5.60
2018-03-27T00:24:45.678Z,5.50
2018-03-27T00:27:13.262Z,5.50
2018-03-27T00:29:53.194Z,5.40
2018-03-27T00:32:34.071Z,5.30
2018-03-27T00:35:13.901Z,5.30
2018-03-27T00:37:53.723Z,5.30
2018-03-27T00:40:33.637Z,5.50
2018-03-27T00:43:02.429Z,5.40
2018-03-27T00:45:30.631Z,5.50
2018-03-27T00:47:59.370Z,5.40
2018-03-27T00:50:27.423Z,5.30
2018-03-27T00:52:56.269Z,5.20
2018-03-27T00:55:24.365Z,5.20
2018-03-27T00:57:52.454Z,5.30
2018-03-27T01:00:20.529Z,5.40
2018-03-27T01:02:48.597Z,5.60
2018-03-27T01:05:16.671Z,5.50
2018-03-27T01:07:44.782Z,5.50
2018-03-27T01:10:12.848Z,5.40
2018-03-27T01:12:40.929Z,5.40
2018-03-27T01:15:09.016Z,5.40
2018-03-27T01:17:37.088Z,5.50
2018-03-27T01:20:05.253Z,5.40
2018-03-27T01:22:34.082Z,5.40
2018-03-27T01:25:02.454Z,5.40
2018-03-27T01:27:30.490Z,5.40
2018-03-27T01:29:58.560Z,5.30
2018-03-27T01:32:26.630Z,5.40
2018-03-27T01:34:54.720Z,5.40
2018-03-27T01:37:22.852Z,5.30
2018-03-27T01:39:50.926Z,5.40
2018-03-27T01:42:19.796Z,5.40
2018-03-27T01:44:47.879Z,5.40
2018-03-27T01:47:15.928Z,5.40
2018-03-27T01:49:44.098Z,5.30
2018-03-27T01:52:12.936Z,5.50
2018-03-27T01:54:41.164Z,5.50
2018-03-27T01:57:09.298Z,5.50
2018-03-27T01:59:37.374Z,5.60
2018-03-27T02:02:05.502Z,5.60
2018-03-27T02:04:33.576Z,5.40
2018-03-27T02:07:01.647Z,5.30
2018-03-27T02:09:29.734Z,5.20
2018-03-27T02:12:04.192Z,5.20
2018-03-27T02:14:38.062Z,5.20
2018-03-27T02:17:11.877Z,5.20
2018-03-27T02:19:45.560Z,5.20
2018-03-27T02:22:13.629Z,5.20
2018-03-27T02:24:41.702Z,5.30
2018-03-27T02:27:09.764Z,5.20
2018-03-27T02:29:37.838Z,5.20
2018-03-27T02:32:05.917Z,5.20
2018-03-27T02:34:34.003Z,5.30
2018-03-27T02:37:02.070Z,5.10
2018-03-27T02:39:31.074Z,5.10
2018-03-27T02:41:59.909Z,5.10
2018-03-27T02:44:27.995Z,5.10
2018-03-27T02:46:56.071Z,5.20
2018-03-27T02:49:24.133Z,5.10
2018-03-27T02:51:52.206Z,5.20
2018-03-27T02:54:21.967Z,5.10
2018-03-27T02:56:50.090Z,5.10
2018-03-27T02:59:18.166Z,5.00
2018-03-27T03:01:47.131Z,5.00
2018-03-27T03:04:15.171Z,4.90
2018-03-27T03:06:44.022Z,5.00
2018-03-27T03:09:12.080Z,5.00
2018-03-27T03:11:40.155Z,4.90
2018-03-27T03:14:09.019Z,4.80
2018-03-27T03:16:37.115Z,4.80
2018-03-27T03:19:05.270Z,4.80
2018-03-27T03:21:33.752Z,4.70
2018-03-27T03:24:03.626Z,4.70
2018-03-27T03:26:31.688Z,4.70
2018-03-27T03:28:59.825Z,4.90
2018-03-27T03:31:27.903Z,4.90
2018-03-27T03:34:00.685Z,5.00
2018-03-27T03:36:29.552Z,4.90
2018-03-27T03:38:57.643Z,4.90
2018-03-27T03:41:25.713Z,4.80
2018-03-27T03:43:53.774Z,4.90
2018-03-27T03:46:21.852Z,4.80
2018-03-27T03:48:49.939Z,4.90
2018-03-27T03:51:18.782Z,4.80
2018-03-27T03:53:47.662Z,4.80
2018-03-27T03:56:15.748Z,4.90
2018-03-27T03:58:43.823Z,4.80
2018-03-27T04:01:12.079Z,4.80
2018-03-27T04:03:40.110Z,4.80
2018-03-27T04:06:08.197Z,4.70
2018-03-27T04:08:36.268Z,4.60
2018-03-27T04:11:05.068Z,4.50
2018-03-27T04:13:33.157Z,4.50
2018-03-27T04:16:01.640Z,4.50
2018-03-27T04:18:29.696Z,4.40
2018-03-27T04:20:57.774Z,4.40
2018-03-27T04:23:25.886Z,4.40
2018-03-27T04:25:53.990Z,4.20
2018-03-27T04:28:22.090Z,4.30
2018-03-27T04:30:50.159Z,4.40
2018-03-27T04:33:18.299Z,4.20
2018-03-27T04:35:47.424Z,4.20
2018-03-27T04:38:15.504Z,4.20
2018-03-27T04:40:43.644Z,4.20
2018-03-27T04:43:11.706Z,4.00
2018-03-27T04:45:39.795Z,4.00
2018-03-27T04:48:07.880Z,4.10
2018-03-27T04:50:35.930Z,4.10
2018-03-27T04:53:04.001Z,4.00
2018-03-27T04:55:32.061Z,3.90
2018-03-27T04:58:00.902Z,3.80
2018-03-27T05:00:28.967Z,3.80
2018-03-27T05:02:57.045Z,3.90
2018-03-27T05:05:25.252Z,4.00
2018-03-27T05:07:53.394Z,4.00
2018-03-27T05:10:22.289Z,3.80
2018-03-27T05:12:50.349Z,3.80
2018-03-27T05:15:18.422Z,3.70
2018-03-27T05:17:46.482Z,3.70
2018-03-27T05:20:14.554Z,3.70
2018-03-27T05:22:42.651Z,3.60
2018-03-27T05:25:10.714Z,3.50
2018-03-27T05:27:38.793Z,3.40
2018-03-27T05:30:06.875Z,3.40
2018-03-27T05:32:35.697Z,3.60
2018-03-27T05:35:03.770Z,3.60
2018-03-27T05:37:31.845Z,3.50
2018-03-27T05:39:59.902Z,3.30
2018-03-27T05:42:27.990Z,3.40
2018-03-27T05:44:56.062Z,3.40
2018-03-27T05:47:24.136Z,3.50
2018-03-27T05:49:52.214Z,3.50
2018-03-27T05:52:20.290Z,3.60
2018-03-27T05:54:48.360Z,3.60
2018-03-27T05:57:16.415Z,3.60
2018-03-27T05:59:44.482Z,3.50
2018-03-27T06:02:13.329Z,3.50
2018-03-27T06:04:41.386Z,3.40
2018-03-27T06:07:09.466Z,3.40
2018-03-27T06:09:37.530Z,3.60
2018-03-27T06:12:06.374Z,3.70
2018-03-27T06:14:34.450Z,3.70
2018-03-27T06:17:02.524Z,3.90
2018-03-27T06:19:30.591Z,4.10
2018-03-27T06:21:58.671Z,4.30
2018-03-27T06:24:27.601Z,4.40
2018-03-27T06:26:55.678Z,4.40
2018-03-27T06:29:23.742Z,4.50
2018-03-27T06:31:52.585Z,4.60
2018-03-27T06:34:20.660Z,4.60
2018-03-27T06:36:48.754Z,4.70
2018-03-27T06:39:16.834Z,4.70
2018-03-27T06:41:44.894Z,4.70
2018-03-27T06:44:12.971Z,4.80
2018-03-27T06:46:41.024Z,4.90
2018-03-27T06:49:09.095Z,4.90
2018-03-27T06:51:37.158Z,4.90
2018-03-27T06:54:05.232Z,4.90
2018-03-27T06:56:33.292Z,4.80
2018-03-27T06:59:01.373Z,4.90
2018-03-27T07:01:29.473Z,4.90
2018-03-27T07:03:57.515Z,5.00
2018-03-27T07:06:25.595Z,5.10
2018-03-27T07:08:53.696Z,5.20
2018-03-27T07:11:21.720Z,5.20
2018-03-27T07:13:49.809Z,5.20
2018-03-27T07:16:17.922Z,5.20
2018-03-27T07:18:45.990Z,5.50
2018-03-27T07:21:14.073Z,5.50
2018-03-27T07:23:42.160Z,5.50
2018-03-27T07:26:10.230Z,5.60
2018-03-27T07:28:38.460Z,5.70
2018-03-27T07:31:06.534Z,5.80
2018-03-27T07:33:35.364Z,6.10
2018-03-27T07:36:03.483Z,6.00
2018-03-27T07:38:31.590Z,6.20
2018-03-27T07:40:59.652Z,6.40
2018-03-27T07:43:27.730Z,6.40
2018-03-27T07:45:55.798Z,6.40
2018-03-27T07:48:23.867Z,6.50
2018-03-27T07:50:51.934Z,6.60
2018-03-27T07:53:20.778Z,6.60
2018-03-27T07:55:48.856Z,6.60
2018-03-27T07:58:16.949Z,6.70
2018-03-27T08:00:45.053Z,6.70
2018-03-27T08:03:13.114Z,6.70
2018-03-27T08:05:41.195Z,6.90
2018-03-27T08:08:09.279Z,6.90
2018-03-27T08:10:37.347Z,7.00
2018-03-27T08:13:05.467Z,7.10
2018-03-27T08:15:33.528Z,7.20
2018-03-27T08:18:01.615Z,7.20
2018-03-27T08:20:29.672Z,7.30
2018-03-27T08:22:57.768Z,7.40
2018-03-27T08:25:25.841Z,7.50
2018-03-27T08:27:53.918Z,7.60
2018-03-27T08:30:22.748Z,7.80
2018-03-27T08:32:50.835Z,7.80
2018-03-27T08:35:18.907Z,7.90
2018-03-27T08:37:46.991Z,7.90
2018-03-27T08:40:15.075Z,7.90
2018-03-27T08:42:43.134Z,7.90
2018-03-27T08:45:11.227Z,7.90
2018-03-27T08:47:39.302Z,7.80
2018-03-27T08:50:07.408Z,7.90
2018-03-27T08:52:35.491Z,8.00
2018-03-27T08:55:03.570Z,8.00
2018-03-27T08:57:31.638Z,8.10
2018-03-27T08:59:59.925Z,8.30
2018-03-27T09:02:27.996Z,8.50
2018-03-27T09:04:56.845Z,8.50
2018-03-27T09:07:24.944Z,8.50
2018-03-27T09:09:53.023Z,8.70
2018-03-27T09:12:21.104Z,8.80
2018-03-27T09:14:50.105Z,8.80
2018-03-27T09:17:18.180Z,8.90
2018-03-27T09:19:46.254Z,8.90
2018-03-27T09:22:14.339Z,9.20
2018-03-27T09:24:42.417Z,9.40
2018-03-27T09:27:10.477Z,9.50
2018-03-27T09:29:38.583Z,9.30
2018-03-27T09:32:06.651Z,9.40
2018-03-27T09:34:35.492Z,9.90
2018-03-27T09:37:03.566Z,9.90
2018-03-27T09:39:31.654Z,10.30
2018-03-27T09:41:59.717Z,12.50
2018-03-27T09:44:27.810Z,15.20
2018-03-27T09:46:55.900Z,17.00
2018-03-27T09:49:24.748Z,20.00
2018-03-27T09:51:52.820Z,19.90
2018-03-27T09:54:21.025Z,20.30
2018-03-27T09:56:49.027Z,20.00
2018-03-27T09:59:17.113Z,17.10
2018-03-27T10:01:45.197Z,14.80
2018-03-27T10:04:13.276Z,13.50
2018-03-27T10:06:41.374Z,13.20
2018-03-27T10:09:09.451Z,12.60
2018-03-27T10:11:37.563Z,12.30
2018-03-27T10:14:05.859Z,12.10
2018-03-27T10:16:33.927Z,11.70
2018-03-27T10:19:02.391Z,11.40
2018-03-27T10:21:30.446Z,11.10
2018-03-27T10:23:58.802Z,11.00
2018-03-27T10:26:27.251Z,11.10
2018-03-27T10:28:56.323Z,12.20
2018-03-27T10:31:24.396Z,12.20
2018-03-27T10:33:52.480Z,13.80
2018-03-27T10:36:20.561Z,15.50
2018-03-27T10:38:48.661Z,16.70
2018-03-27T10:41:16.733Z,17.50
2018-03-27T10:43:44.800Z,17.70
2018-03-27T10:46:12.874Z,17.70
2018-03-27T10:48:40.992Z,17.70
2018-03-27T10:51:09.340Z,17.50
2018-03-27T10:53:37.543Z,17.80
2018-03-27T10:56:05.622Z,17.70
2018-03-27T10:58:33.780Z,18.60
2018-03-27T11:01:02.604Z,18.10
2018-03-27T11:03:30.688Z,18.10
2018-03-27T11:05:58.781Z,17.10
2018-03-27T11:08:26.896Z,17.40
2018-03-27T11:10:54.942Z,16.30
2018-03-27T11:13:23.030Z,15.30
2018-03-27T11:15:51.108Z,15.00
2018-03-27T11:18:19.349Z,14.40
2018-03-27T11:20:47.683Z,13.40
2018-03-27T11:23:15.806Z,12.60
2018-03-27T11:25:43.852Z,12.30
2018-03-27T11:28:11.916Z,12.20
2018-03-27T11:30:40.001Z,12.20
2018-03-27T11:33:08.073Z,12.00
2018-03-27T11:35:36.952Z,11.70
2018-03-27T11:38:05.030Z,11.60
2018-03-27T11:40:33.105Z,11.40
2018-03-27T11:43:01.181Z,11.30
2018-03-27T11:45:29.271Z,11.40
2018-03-27T11:47:57.345Z,11.40
2018-03-27T11:50:25.431Z,12.20
2018-03-27T11:52:53.886Z,13.30
2018-03-27T11:55:22.028Z,13.50
2018-03-27T11:57:50.093Z,13.60
2018-03-27T12:00:18.207Z,13.70
2018-03-27T12:02:47.046Z,12.50
2018-03-27T12:05:15.134Z,12.40
2018-03-27T12:07:43.213Z,11.90
2018-03-27T12:10:11.288Z,11.50
2018-03-27T12:12:40.134Z,11.00
2018-03-27T12:15:08.197Z,11.00
2018-03-27T12:17:36.398Z,11.10
2018-03-27T12:20:04.487Z,11.10
2018-03-27T12:22:32.661Z,11.10
2018-03-27T12:25:00.719Z,11.10
2018-03-27T12:27:28.795Z,11.30
2018-03-27T12:29:56.873Z,11.70
2018-03-27T12:32:25.182Z,12.50
2018-03-27T12:34:53.243Z,12.70
2018-03-27T12:37:21.324Z,12.50
2018-03-27T12:39:49.457Z,12.90
2018-03-27T12:42:17.563Z,13.00
2018-03-27T12:44:45.633Z,13.20
2018-03-27T12:47:13.713Z,13.40
2018-03-27T12:49:41.790Z,13.80
2018-03-27T12:52:09.875Z,14.50
2018-03-27T12:54:38.048Z,14.70
2018-03-27T12:57:06.107Z,14.50
2018-03-27T12:59:34.182Z,14.30
2018-03-27T13:02:02.267Z,14.70
2018-03-27T13:04:30.329Z,14.50
2018-03-27T13:06:58.405Z,14.50
2018-03-27T13:09:26.460Z,13.70
2018-03-27T13:11:54.547Z,12.90
2018-03-27T13:14:22.640Z,12.70
2018-03-27T13:16:50.727Z,12.30
2018-03-27T13:19:18.833Z,11.90
2018-03-27T13:21:47.703Z,12.00
2018-03-27T13:24:16.276Z,12.00
2018-03-27T13:26:44.358Z,12.00
2018-03-27T13:29:12.430Z,12.20
2018-03-27T13:31:40.524Z,13.00
2018-03-27T13:34:08.612Z,13.50
2018-03-27T13:36:36.703Z,14.00
2018-03-27T13:39:04.840Z,14.10
2018-03-27T13:41:33.631Z,14.20
2018-03-27T13:44:02.478Z,14.20
2018-03-27T13:46:30.557Z,14.20
2018-03-27T13:48:58.625Z,13.90
2018-03-27T13:51:26.726Z,13.50
2018-03-27T13:53:54.808Z,12.80
2018-03-27T13:56:22.893Z,12.80
2018-03-27T13:58:50.966Z,12.50
2018-03-27T14:01:19.046Z,12.40
2018-03-27T14:03:47.764Z,12.40
2018-03-27T14:06:15.848Z,12.40
2018-03-27T14:08:44.684Z,12.60
2018-03-27T14:11:12.755Z,12.60
2018-03-27T14:13:40.825Z,12.60
2018-03-27T14:16:08.884Z,12.70
2018-03-27T14:18:36.956Z,12.40
2018-03-27T14:21:05.868Z,12.20
2018-03-27T14:23:33.971Z,12.30
2018-03-27T14:26:02.069Z,12.30
2018-03-27T14:28:30.131Z,12.40
2018-03-27T14:30:58.322Z,12.10
2018-03-27T14:33:26.400Z,11.70
2018-03-27T14:35:54.465Z,11.60
2018-03-27T14:38:22.548Z,11.50
2018-03-27T14:40:50.614Z,11.40
2018-03-27T14:43:19.453Z,11.30
2018-03-27T14:45:47.520Z,11.20
2018-03-27T14:48:15.602Z,11.20
2018-03-27T14:50:44.646Z,11.00
2018-03-27T14:53:12.744Z,11.00
2018-03-27T14:55:40.821Z,11.00
2018-03-27T14:58:08.902Z,11.00
2018-03-27T15:00:36.973Z,11.10
2018-03-27T15:03:05.052Z,11.00
2018-03-27T15:05:33.203Z,11.00
2018-03-27T15:08:01.253Z,11.00
2018-03-27T15:10:29.325Z,11.00
2018-03-27T15:12:57.411Z,10.90
2018-03-27T15:15:25.477Z,10.80
2018-03-27T15:17:53.624Z,10.60
2018-03-27T15:20:21.672Z,10.50
2018-03-27T15:22:49.736Z,10.50
2018-03-27T15:25:17.784Z,10.40
2018-03-27T15:27:45.976Z,10.50
2018-03-27T15:30:14.786Z,10.60
2018-03-27T15:32:42.887Z,10.50
2018-03-27T15:35:10.945Z,10.70
2018-03-27T15:37:39.023Z,10.70
2018-03-27T15:40:07.244Z,10.60
2018-03-27T15:42:35.324Z,10.70
2018-03-27T15:45:04.305Z,10.70
2018-03-27T15:47:32.469Z,10.70
2018-03-27T15:50:01.330Z,10.80
2018-03-27T15:52:29.400Z,10.80
2018-03-27T15:54:57.533Z,10.70
2018-03-27T15:57:25.706Z,10.80
2018-03-27T15:59:54.582Z,10.80
2018-03-27T16:02:22.639Z,10.80
2018-03-27T16:04:51.730Z,10.90
2018-03-27T16:07:19.788Z,10.90
2018-03-27T16:09:47.873Z,10.80
2018-03-27T16:12:16.708Z,10.60
2018-03-27T16:14:44.826Z,10.60
2018-03-27T16:17:12.967Z,10.60
2018-03-27T16:19:41.057Z,10.50
2018-03-27T16:22:09.102Z,10.40
2018-03-27T16:24:37.940Z,10.40
2018-03-27T16:27:06.008Z,10.40
2018-03-27T16:29:34.138Z,10.40
2018-03-27T16:32:02.269Z,10.40
2018-03-27T16:34:31.709Z,10.50
2018-03-27T16:36:59.778Z,10.50
2018-03-27T16:39:28.504Z,10.50
2018-03-27T16:41:56.665Z,10.50
2018-03-27T16:44:24.758Z,10.50
2018-03-27T16:46:52.838Z,10.60
2018-03-27T16:49:20.978Z,10.50
2018-03-27T16:51:49.069Z,10.60
2018-03-27T16:54:17.151Z,10.60
2018-03-27T16:56:45.215Z,10.50
2018-03-27T16:59:14.120Z,10.50
2018-03-27T17:01:42.200Z,10.30
2018-03-27T17:04:10.272Z,10.30
2018-03-27T17:06:38.358Z,10.30
2018-03-27T17:09:06.524Z,10.30
2018-03-27T17:11:34.571Z,10.30
2018-03-27T17:14:03.409Z,10.20
2018-03-27T17:16:31.485Z,10.30
2018-03-27T17:18:59.655Z,10.30
2018-03-27T17:21:27.738Z,10.30
2018-03-27T17:23:55.874Z,10.30
2018-03-27T17:26:23.956Z,10.20
2018-03-27T17:28:52.249Z,10.10
2018-03-27T17:31:20.320Z,10.00
2018-03-27T17:33:48.515Z,10.00
2018-03-27T17:36:16.587Z,9.90
2018-03-27T17:38:44.662Z,9.80
2018-03-27T17:41:12.791Z,9.80
2018-03-27T17:43:40.856Z,9.70
2018-03-27T17:46:08.933Z,9.70
2018-03-27T17:48:37.122Z,9.70
2018-03-27T17:51:05.192Z,9.70
2018-03-27T17:53:33.263Z,9.60
2018-03-27T17:56:01.332Z,9.60
2018-03-27T17:58:29.400Z,9.60
2018-03-27T18:00:58.241Z,9.60
2018-03-27T18:03:26.585Z,9.60
2018-03-27T18:05:54.649Z,9.60
2018-03-27T18:08:22.735Z,9.40
2018-03-27T18:10:50.805Z,9.40
2018-03-27T18:13:18.896Z,9.40
2018-03-27T18:15:46.969Z,9.30
2018-03-27T18:18:15.100Z,9.30
2018-03-27T18:20:43.168Z,9.10
2018-03-27T18:23:12.024Z,8.60
2018-03-27T18:25:40.137Z,8.60
2018-03-27T18:28:08.197Z,8.60
2018-03-27T18:30:36.303Z,8.60
2018-03-27T18:33:05.143Z,8.60
2018-03-27T18:35:33.217Z,8.60
2018-03-27T18:38:02.048Z,8.60
2018-03-27T18:40:30.136Z,8.50
2018-03-27T18:42:58.229Z,8.50
2018-03-27T18:45:26.284Z,8.50
2018-03-27T18:47:54.406Z,8.40
2018-03-27T18:50:22.500Z,8.40
2018-03-27T18:52:51.452Z,8.40
2018-03-27T18:55:19.537Z,8.30
2018-03-27T18:57:47.615Z,8.30
2018-03-27T19:00:15.676Z,8.30
2018-03-27T19:02:44.495Z,8.30
2018-03-27T19:05:12.595Z,8.20
2018-03-27T19:07:40.706Z,8.30
2018-03-27T19:10:08.867Z,8.20
2018-03-27T19:12:36.959Z,8.20
2018-03-27T19:15:05.040Z,8.10
2018-03-27T19:17:33.105Z,8.00
2018-03-27T19:20:01.271Z,8.00
2018-03-27T19:22:31.092Z,8.00
2018-03-27T19:24:59.916Z,8.00
2018-03-27T19:27:27.977Z,8.10
2018-03-27T19:29:56.925Z,8.10
2018-03-27T19:32:25.761Z,8.10
2018-03-27T19:34:53.820Z,8.10
2018-03-27T19:37:21.889Z,8.10
2018-03-27T19:39:49.971Z,8.10
2018-03-27T19:42:18.037Z,8.10
2018-03-27T19:44:46.117Z,8.10
2018-03-27T19:47:14.224Z,8.10
2018-03-27T19:49:43.200Z,8.10
2018-03-27T19:52:12.194Z,8.00
2018-03-27T19:54:40.197Z,8.00
2018-03-27T19:57:08.276Z,8.00
2018-03-27T19:59:36.562Z,8.00
2018-03-27T20:02:04.622Z,8.00
2018-03-27T20:04:32.684Z,8.00
2018-03-27T20:07:00.782Z,8.00
2018-03-27T20:09:28.843Z,8.00
2018-03-27T20:11:56.926Z,8.00
2018-03-27T20:14:25.000Z,7.90
2018-03-27T20:16:53.085Z,7.90
2018-03-27T20:19:21.148Z,7.90
2018-03-27T20:21:49.225Z,7.90
2018-03-27T20:24:17.339Z,7.90
2018-03-27T20:26:45.428Z,7.90
2018-03-27T20:29:13.497Z,7.80
2018-03-27T20:31:41.565Z,7.70
2018-03-27T20:34:09.901Z,7.70
2018-03-27T20:36:38.988Z,7.70
2018-03-27T20:39:07.053Z,7.80
2018-03-27T20:41:35.121Z,7.70
2018-03-27T20:44:03.195Z,7.70
2018-03-27T20:46:32.043Z,7.80
2018-03-27T20:49:00.153Z,7.80
2018-03-27T20:51:28.205Z,7.70
2018-03-27T20:53:56.305Z,7.70
2018-03-27T20:56:24.348Z,7.70
2018-03-27T20:58:52.424Z,7.70
2018-03-27T21:01:20.481Z,7.70
2018-03-27T21:03:49.324Z,7.70
2018-03-27T21:06:17.400Z,7.70
2018-03-27T21:08:45.480Z,7.80
2018-03-27T21:11:14.125Z,7.80
2018-03-27T21:13:42.201Z,7.80
2018-03-27T21:16:10.256Z,7.70
2018-03-27T21:18:38.335Z,7.80
2018-03-27T21:21:06.442Z,7.80
2018-03-27T21:23:34.489Z,7.90
2018-03-27T21:26:02.574Z,7.90
2018-03-27T21:28:30.653Z,7.90
2018-03-27T21:30:58.722Z,7.90
2018-03-27T21:33:27.560Z,7.90
2018-03-27T21:35:55.624Z,7.90
2018-03-27T21:38:23.709Z,7.90
2018-03-27T21:40:51.780Z,7.80
2018-03-27T21:43:20.596Z,7.70
2018-03-27T21:45:48.678Z,7.70
2018-03-27T21:48:16.729Z,7.70
2018-03-27T21:50:44.898Z,7.70
2018-03-27T21:53:13.021Z,7.70
2018-03-27T21:55:41.868Z,7.80
2018-03-27T21:58:10.062Z,7.70
2018-03-27T22:00:38.109Z,7.70
2018-03-27T22:03:06.156Z,7.70
2018-03-27T22:05:34.238Z,7.70
2018-03-27T22:08:03.742Z,7.90
2018-03-27T22:10:31.817Z,7.90
2018-03-27T22:12:59.885Z,7.90
2018-03-27T22:15:27.957Z,7.90
2018-03-27T22:17:56.012Z,8.00
2018-03-27T22:20:24.084Z,8.00
2018-03-27T22:22:52.922Z,8.00
2018-03-27T22:25:21.766Z,7.90
2018-03-27T22:27:49.833Z,7.80
2018-03-27T22:30:17.909Z,7.80
2018-03-27T22:32:45.976Z,7.70
2018-03-27T22:35:14.026Z,7.70
2018-03-27T22:37:42.076Z,7.70
2018-03-27T22:40:10.153Z,7.60
2018-03-27T22:42:38.881Z,7.60
2018-03-27T22:45:07.945Z,7.70
2018-03-27T22:47:35.994Z,7.60
2018-03-27T22:50:04.243Z,7.60
2018-03-27T22:52:32.370Z,7.60
2018-03-27T22:55:00.418Z,7.70
2018-03-27T22:57:28.474Z,7.70
2018-03-27T22:59:56.539Z,7.70
2018-03-27T23:02:24.609Z,7.70
2018-03-27T23:04:52.641Z,7.70
2018-03-27T23:07:20.730Z,7.80
2018-03-27T23:09:48.784Z,7.70
2018-03-27T23:12:16.844Z,7.70
2018-03-27T23:14:44.912Z,7.80
2018-03-27T23:17:13.724Z,7.80
2018-03-27T23:19:41.759Z,7.70
2018-03-27T23:22:10.041Z,7.80
2018-03-27T23:24:39.514Z,7.80
2018-03-27T23:27:08.007Z,7.80
2018-03-27T23:29:36.047Z,7.90
2018-03-27T23:32:04.114Z,8.00
2018-03-27T23:34:32.163Z,8.00
2018-03-27T23:37:00.234Z,8.00
2018-03-27T23:39:28.283Z,8.00
2018-03-27T23:41:57.130Z,8.10
2018-03-27T23:44:25.190Z,8.00
2018-03-27T23:46:53.275Z,8.10
2018-03-27T23:49:21.321Z,8.00
2018-03-27T23:51:49.389Z,8.10
2018-03-27T23:54:17.443Z,8.10
2018-03-27T23:56:45.533Z,8.10
2018-03-27T23:59:13.593Z,8.10
